WetterOnline ( https://www.wetteronline.de )

Wetter aktuell Regen

Aktuelles Wetter: Zwiesel (613m)

6-stündlich | Neueste Meldungen
Ortszeit Temperatur Wetter
Mo, 27.06. 20:00 27.1° C leicht bewölkt
Mo, 27.06. 14:00 29.3° C wolkenlos
Mo, 27.06. 8:00 18.1° C wolkenlos
Mo, 27.06. 2:00 16.7° C wolkenlos
So, 26.06. 20:00 25.7° C wolkenlos
So, 26.06. 14:00 25.5° C wolkenlos
So, 26.06. 8:00 16.0° C wolkenlos
So, 26.06. 2:00 12.9° C wolkenlos
Ortszeit Temperatur Wetter
Di, 28.06. 1:00 17.9° C leichter Regen
Di, 28.06. 0:50 17.9° C leichter Regen
Di, 28.06. 0:40 18.0° C Sprühregen
Di, 28.06. 0:30 18.3° C wolkig
Di, 28.06. 0:20 18.3° C wolkig
Di, 28.06. 0:10 18.2° C bewölkt
Di, 28.06. 0:00 17.5° C wolkig
Mo, 27.06. 23:30 18.2° C wolkig
Mo, 27.06. 23:00 18.0° C leichter Regen
Mo, 27.06. 22:30 22.4° C bedeckt
Mo, 27.06. 22:00 24.5° C wolkig
Ortszeit Relative Feuchte Sichtweite
Mo, 27.06. 20:00 65% 50 km
Mo, 27.06. 14:00 40% 35 km
Mo, 27.06. 8:00 76% 65 km
Mo, 27.06. 2:00 84% 50 km
So, 26.06. 20:00 53% >70 km
So, 26.06. 14:00 49% 35 km
So, 26.06. 8:00 81% 55 km
So, 26.06. 2:00 97% 25 km
Ortszeit Relative Feuchte Sichtweite
Di, 28.06. 1:00 88% 19 km
Di, 28.06. 0:50 88% -
Di, 28.06. 0:40 88% -
Di, 28.06. 0:30 84% 55 km
Di, 28.06. 0:20 84% -
Di, 28.06. 0:10 89% -
Di, 28.06. 0:00 94% 30 km
Mo, 27.06. 23:30 90% 60 km
Mo, 27.06. 23:00 90% 26 km
Mo, 27.06. 22:30 65% 60 km
Mo, 27.06. 22:00 58% 60 km
Ortszeit Niederschlagsmenge Niederschlagsart
Mo, 27.06. 20:00 0.0 l/m2 in 12 Std. -
Mo, 27.06. 14:00 0.0 l/m2 in 6 Std. -
Mo, 27.06. 8:00 0.0 l/m2 in 12 Std. -
Mo, 27.06. 2:00 0.0 l/m2 in 6 Std. -
So, 26.06. 20:00 0.1 l/m2 in 12 Std. -
So, 26.06. 14:00 0.1 l/m2 in 6 Std. -
So, 26.06. 8:00 0.0 l/m2 in 12 Std. -
So, 26.06. 2:00 0.0 l/m2 in 6 Std. -
Ortszeit Niederschlagsmenge Niederschlagsart
Di, 28.06. 1:00 0.1 l/m2 in 1 Std. Regen
Di, 28.06. 0:50 keine Meldung -
Di, 28.06. 0:40 keine Meldung -
Di, 28.06. 0:30 0.0 l/m2 in 1 Std. -
Di, 28.06. 0:20 keine Meldung -
Di, 28.06. 0:10 keine Meldung -
Di, 28.06. 0:00 0.1 l/m2 in 1 Std. Regen
Mo, 27.06. 23:30 0.1 l/m2 in 1 Std. Schneeregen
Mo, 27.06. 23:00 9.5 l/m2 in 1 Std. Regen, Niederschlag
Mo, 27.06. 22:30 0.0 l/m2 in 1 Std. -
Mo, 27.06. 22:00 0.0 l/m2 in 1 Std. -
Ortszeit Stärke Spitze Richtung
km/h Bft. km/h Grad Sektor
Mo, 27.06. 20:00 6 1 17 340° N
Mo, 27.06. 14:00 7 2 22 240° SW
Mo, 27.06. 8:00 6 1 13 110° O
Mo, 27.06. 2:00 4 1 18 20° N
So, 26.06. 20:00 7 2 22 90° O
So, 26.06. 14:00 11 2 25 230° SW
So, 26.06. 8:00 4 1 7 230° SW
So, 26.06. 2:00 0 0 11 - -
Ortszeit Stärke Spitze Richtung
km/h Bft. km/h Grad Sektor
Di, 28.06. 1:00 14 3 40 270° W
Di, 28.06. 0:50 14 3 - 270° W
Di, 28.06. 0:40 14 3 - 320° NW
Di, 28.06. 0:30 13 3 26 360° N
Di, 28.06. 0:20 13 3 - 360° N
Di, 28.06. 0:10 7 2 - 360° N
Di, 28.06. 0:00 4 1 36 110° O
Mo, 27.06. 23:30 9 2 35 360° N
Mo, 27.06. 23:00 17 3 50 330° NW
Mo, 27.06. 22:30 11 2 25 250° W
Mo, 27.06. 22:00 11 2 29 350° N
Ortszeit Untergrenze Bedeckung Gattung
total tief tief mittel hoch
Mo, 27.06. 20:00 10500 m 6/8 0/8 - - -
Mo, 27.06. 14:00 - 0/8 0/8 - - -
Mo, 27.06. 8:00 - 0/8 0/8 - - -
Mo, 27.06. 2:00 - 0/8 0/8 - - -
So, 26.06. 20:00 - 0/8 0/8 - - -
So, 26.06. 14:00 - 0/8 0/8 - - -
So, 26.06. 8:00 - 0/8 0/8 - - -
So, 26.06. 2:00 - 0/8 0/8 - - -
Ortszeit Bedeckungsgrad in Achtel und Wolkenuntergrenze
Di, 28.06. 1:00 1(270m) 6(1020m) 7(1800m)
Di, 28.06. 0:50 1(270m) 6(1020m) 7(1800m)
Di, 28.06. 0:40 7
Di, 28.06. 0:30 4(630m) 7(5100m) 7(9000m)
Di, 28.06. 0:20 4(630m) 7(5100m) 7(9000m)
Di, 28.06. 0:10 7
Di, 28.06. 0:00 1(8400m) 7(9000m) 8(9000m)
Mo, 27.06. 23:30 2(5400m) 3(6000m) 7(7800m)
Mo, 27.06. 23:00 3(210m) 7(1290m) 7(1800m)
Mo, 27.06. 22:30 7(1500m) 7(2100m) 8(2400m)
Mo, 27.06. 22:00 3(1500m) 3(4200m) 6(9000m)
Ortszeit Luftdruck NN (hPa) Tendenz (hPa in 3 Std.)
Mo, 27.06. 20:00 1011 - 0,1
Mo, 27.06. 14:00 1011 - 0,7
Mo, 27.06. 8:00 1014 + 0,9
Mo, 27.06. 2:00 1014 - 0,9
So, 26.06. 20:00 1012 - 0,7
So, 26.06. 14:00 1013 - 0,5
So, 26.06. 8:00 1016 + 1,0
So, 26.06. 2:00 1016 + 0,2
Ortszeit Luftdruck NN (hPa) Tendenz (hPa in 3 Std.)
Di, 28.06. 1:00 1020 + 5,0
Di, 28.06. 0:50 1020 keine Meldung
Di, 28.06. 0:40 1019 keine Meldung
Di, 28.06. 0:30 1018 + 3,3
Di, 28.06. 0:20 1018 keine Meldung
Di, 28.06. 0:10 1018 keine Meldung
Di, 28.06. 0:00 1018 + 4,0
Mo, 27.06. 23:30 1017 + 3,5
Mo, 27.06. 23:00 1017 + 3,4
Mo, 27.06. 22:30 1014 + 1,6
Mo, 27.06. 22:00 1013 + 1,3
Ortszeit Schneehöhe (cm)
Mo, 27.06. 20:00 0
Mo, 27.06. 14:00 0
Mo, 27.06. 8:00 0
Mo, 27.06. 2:00 0
So, 26.06. 20:00 0
So, 26.06. 14:00 0
So, 26.06. 8:00 0
So, 26.06. 2:00 0
Ortszeit Schneehöhe (cm)
Di, 28.06. 1:00 0
Di, 28.06. 0:50 0
Di, 28.06. 0:40 0
Di, 28.06. 0:30 0
Di, 28.06. 0:20 0
Di, 28.06. 0:10 0
Di, 28.06. 0:00 0
Mo, 27.06. 23:30 0
Mo, 27.06. 23:00 0
Mo, 27.06. 22:30 0
Mo, 27.06. 22:00 0
Link zu dieser Seite / Seite empfehlen

Das Wetter in ...